Latest Weather Observations for North Head

IDN60901

Issued at 8:42 am EDT Wednesday 8 December 2021 (issued every 10 minutes, with the page automatically refreshed every 10 minutes)

About weather observations | Map of Sydney area stations | Latest observations for Sydney area | Other Formats
Station Details ID: 066197 Name: NORTH HEAD Lat: -33.82 Lon: 151.30 Height: 90.0 m
Data from the previous 72 hours. | See also: Recent months at North Head
Date/Time
EDT
Temp
°C
App
Temp
°C
Dew
Point
°C
Rel
Hum
%
Delta-T
°C
Wind Press
QNH
hPa
Press
MSL
hPa
Rain since
9am
mm
Dir  Spd
km/h
Gust
km/h
Spd
kts
Gust
kts
08/08:30am - - - - - SSW 17 30 9 16 - - -
08/08:00am - - - - - SSW 17 28 9 15 - - -
08/07:30am - - - - - SSW 17 30 9 16 - - -
08/07:00am - - - - - SW 17 28 9 15 - - -
08/06:30am - - - - - SSW 17 33 9 18 - - -
08/06:00am - - - - - SSW 17 32 9 17 - - -
08/05:30am - - - - - S 24 39 13 21 - - -
08/05:00am - - - - - SSW 26 44 14 24 - - -
08/04:45am - - - - - S 28 48 15 26 - - -
08/04:30am - - - - - S 30 48 16 26 - - -
08/04:00am - - - - - S 30 54 16 29 - - -
08/03:30am - - - - - S 28 46 15 25 - - -
08/03:11am - - - - - S 28 46 15 25 - - -
08/03:00am - - - - - S 26 46 14 25 - - -
08/02:30am - - - - - SSW 19 28 10 15 - - -
08/02:00am - - - - - SSW 15 22 8 12 - - -
08/01:30am - - - - - WSW 13 15 7 8 - - -
08/01:00am - - - - - WNW 7 9 4 5 - - -
08/12:30am - - - - - NW 9 13 5 7 - - -
08/12:00am - - - - - NNE 9 13 5 7 - - -
 
Date/Time
EDT
Temp
°C
App
Temp
°C
Dew
Point
°C
Rel
Hum
%
Delta-T
°C
Wind Press
QNH
hPa
Press
MSL
hPa
Rain since
9am
mm
Dir  Spd
km/h
Gust
km/h
Spd
kts
Gust
kts
07/11:30pm - - - - - N 13 19 7 10 - - -
07/11:00pm - - - - - N 13 15 7 8 - - -
07/10:30pm - - - - - NNE 9 17 5 9 - - -
07/10:00pm - - - - - ENE 11 13 6 7 - - -
07/09:30pm - - - - - NNE 7 9 4 5 - - -
07/09:00pm - - - - - NW 7 9 4 5 - - -
07/08:30pm - - - - - NNW 7 11 4 6 - - -
07/08:00pm - - - - - NW 9 13 5 7 - - -
07/07:30pm - - - - - NNW 11 17 6 9 - - -
07/07:00pm - - - - - N 13 19 7 10 - - -
07/06:30pm - - - - - NNE 20 28 11 15 - - -
07/06:00pm - - - - - N 15 22 8 12 - - -
07/05:30pm - - - - - N 20 30 11 16 - - -
07/05:00pm - - - - - NNE 19 26 10 14 - - -
07/04:30pm - - - - - E 9 22 5 12 - - -
07/04:00pm - - - - - NE 20 26 11 14 - - -
07/03:30pm - - - - - NE 22 28 12 15 - - -
07/03:00pm - - - - - NE 22 33 12 18 - - -
07/02:30pm - - - - - ENE 22 30 12 16 - - -
07/02:00pm - - - - - ENE 17 24 9 13 - - -
07/01:30pm - - - - - ENE 15 20 8 11 - - -
07/01:00pm - - - - - ENE 13 19 7 10 - - -
07/12:30pm - - - - - ENE 11 17 6 9 - - -
07/12:00pm - - - - - NE 13 19 7 10 - - -
07/11:30am - - - - - NE 15 22 8 12 - - -
07/11:00am - - - - - N 11 17 6 9 - - -
07/10:30am - - - - - NNE 11 17 6 9 - - -
07/10:00am - - - - - NNE 7 13 4 7 - - -
07/09:30am - - - - - NE 7 11 4 6 - - -
07/09:00am - - - - - E 6 9 3 5 - - -
07/08:30am - - - - - NW 2 7 1 4 - - -
07/08:00am - - - - - NW 6 9 3 5 - - -
07/07:30am - - - - - N 7 9 4 5 - - -
07/07:00am - - - - - N 7 9 4 5 - - -
07/06:30am - - - - - NNW 6 9 3 5 - - -
07/06:00am - - - - - NW 6 6 3 3 - - -
07/05:30am - - - - - W 6 7 3 4 - - -
07/05:00am - - - - - W 7 9 4 5 - - -
07/04:30am - - - - - WNW 4 6 2 3 - - -
07/04:00am - - - - - NNW 7 11 4 6 - - -
07/03:30am - - - - - NNW 7 11 4 6 - - -
07/03:00am - - - - - NNE 9 15 5 8 - - -
07/02:30am - - - - - NNE 13 20 7 11 - - -
07/02:00am - - - - - NNE 11 17 6 9 - - -
07/01:30am - - - - - N 7 13 4 7 - - -
07/01:00am - - - - - N 9 13 5 7 - - -
07/12:30am - - - - - N 11 19 6 10 - - -
07/12:00am - - - - - N 15 22 8 12 - - -
 
Date/Time
EDT
Temp
°C
App
Temp
°C
Dew
Point
°C
Rel
Hum
%
Delta-T
°C
Wind Press
QNH
hPa
Press
MSL
hPa
Rain since
9am
mm
Dir  Spd
km/h
Gust
km/h
Spd
kts
Gust
kts
06/11:30pm - - - - - NNE 13 22 7 12 - - -
06/11:00pm - - - - - NNE 11 19 6 10 - - -
06/10:30pm - - - - - NE 13 19 7 10 - - -
06/10:00pm - - - - - NNE 11 17 6 9 - - -
06/09:30pm - - - - - NE 11 17 6 9 - - -
06/09:00pm - - - - - NNE 9 17 5 9 - - -
06/08:30pm - - - - - NNE 11 19 6 10 - - -
06/08:00pm - - - - - NE 13 19 7 10 - - -
06/07:30pm - - - - - NE 11 17 6 9 - - -
06/07:00pm - - - - - ENE 13 19 7 10 - - -
06/06:30pm - - - - - NE 11 19 6 10 - - -
06/06:00pm - - - - - NE 13 20 7 11 - - -
06/05:30pm - - - - - NE 13 19 7 10 - - -
06/05:00pm - - - - - NE 11 20 6 11 - - -
06/04:30pm - - - - - NE 13 17 7 9 - - -
06/04:00pm - - - - - NE 11 19 6 10 - - -
06/03:30pm - - - - - NE 11 19 6 10 - - -
06/03:00pm - - - - - NE 13 20 7 11 - - -
06/02:30pm - - - - - NE 15 22 8 12 - - -
06/02:00pm - - - - - NE 15 22 8 12 - - -
06/01:30pm - - - - - NE 17 24 9 13 - - -
06/01:00pm - - - - - ENE 15 20 8 11 - - -
06/12:30pm - - - - - NE 13 20 7 11 - - -
06/12:00pm - - - - - ENE 13 20 7 11 - - -
06/11:30am - - - - - ENE 13 20 7 11 - - -
06/11:00am - - - - - ENE 11 19 6 10 - - -
06/10:30am - - - - - E 15 24 8 13 - - -
06/10:00am - - - - - ENE 15 24 8 13 - - -
06/09:30am - - - - - E 15 22 8 12 - - -
06/09:00am - - - - - E 13 22 7 12 - - -
06/08:30am - - - - - ENE 9 15 5 8 - - -
06/08:00am - - - - - ENE 9 15 5 8 - - -
06/07:30am - - - - - NE 7 11 4 6 - - -
06/07:00am - - - - - ENE 13 19 7 10 - - -
06/06:30am - - - - - E 9 15 5 8 - - -
06/06:00am - - - - - ENE 11 19 6 10 - - -
06/05:30am - - - - - ENE 11 17 6 9 - - -
06/05:00am - - - - - ENE 13 20 7 11 - - -
06/04:30am - - - - - E 11 26 6 14 - - -
06/04:00am - - - - - E 15 30 8 16 - - -
06/03:30am - - - - - E 19 28 10 15 - - -
06/03:00am - - - - - ESE 17 24 9 13 - - -
06/02:30am - - - - - E 19 28 10 15 - - -
06/02:00am - - - - - E 22 30 12 16 - - -
06/01:30am - - - - - E 15 24 8 13 - - -
06/01:00am - - - - - E 13 22 7 12 - - -
06/12:30am - - - - - SE 7 15 4 8 - - -
06/12:00am - - - - - SE 11 20 6 11 - - -
 
Date/Time
EDT
Temp
°C
App
Temp
°C
Dew
Point
°C
Rel
Hum
%
Delta-T
°C
Wind Press
QNH
hPa
Press
MSL
hPa
Rain since
9am
mm
Dir  Spd
km/h
Gust
km/h
Spd
kts
Gust
kts
05/11:30pm - - - - - ESE 15 26 8 14 - - -
05/11:00pm - - - - - ESE 13 20 7 11 - - -
05/10:30pm - - - - - ESE 13 19 7 10 - - -
05/10:00pm - - - - - ESE 17 26 9 14 - - -
05/09:30pm - - - - - ESE 19 28 10 15 - - -
05/09:00pm - - - - - ESE 20 32 11 17 - - -
05/08:30pm - - - - - ESE 20 30 11 16 - - -
05/08:00pm - - - - - SE 15 24 8 13 - - -
05/07:30pm - - - - - SE 17 28 9 15 - - -
05/07:00pm - - - - - SE 19 32 10 17 - - -
05/06:30pm - - - - - SE 19 28 10 15 - - -
05/06:00pm - - - - - SE 22 32 12 17 - - -
05/05:30pm - - - - - SE 22 33 12 18 - - -
05/05:00pm - - - - - SE 20 33 11 18 - - -
05/04:30pm - - - - - SE 22 37 12 20 - - -
05/04:00pm - - - - - SE 22 37 12 20 - - -
05/03:30pm - - - - - ESE 22 39 12 21 - - -
05/03:00pm - - - - - SE 22 33 12 18 - - -
05/02:30pm - - - - - SE 24 35 13 19 - - -
05/02:00pm - - - - - SE 24 41 13 22 - - -
05/01:30pm - - - - - SE 26 44 14 24 - - -
05/01:00pm - - - - - SE 22 37 12 20 - - -
05/12:30pm - - - - - SE 22 35 12 19 - - -
05/12:00pm - - - - - SE 22 35 12 19 - - -
05/11:30am - - - - - SE 22 41 12 22 - - -
05/11:00am - - - - - SE 22 37 12 20 - - -
05/10:30am - - - - - SSE 20 35 11 19 - - -
05/10:00am - - - - - SSE 20 32 11 17 - - -
05/09:30am - - - - - S 19 30 10 16 - - -
05/09:00am - - - - - SSE 22 32 12 17 - - -

Latest Capital City Observations: Canberra | Sydney | Melbourne | Brisbane | Adelaide | Perth | Hobart | Darwin

Other formats

Comma delimited format used in spreadsheet applications
http://www.bom.gov.au/fwo/IDN60901/IDN60901.95768.axf

JavaScript Object Notation format (JSON) in row-major order
http://www.bom.gov.au/fwo/IDN60901/IDN60901.95768.json

Data quality

Most of these data are generated automatically and are frequently updated. Quality checks on data are not normally performed. It is possible for incorrect values to appear. Refer to information at About Latest Weather Observations and please check the disclaimer before using these data.